Time;durP1;ratioP1;P1;durP2;ratioP2;P2;SDS_P1;SDS_P2;PMS_P1;PMS_P2;Temp;Humidity;BMP_temperature;BMP_pressure;BME280_temperature;BME280_humidity;BME280_pressure;Samples;Min_cycle;Max_cycle;Signal;HPM_P1;HPM_P2
2021/12/14 00:01:43;;;;;;;;;;;7.20;94.10;;;;;;4991323;28;19964;-61
2021/12/14 00:04:09;;;;;;;;;;;7.20;94.10;;;;;;5022252;28;19952;-60
2021/12/14 00:06:34;;;;;;;;;;;7.20;94.10;;;;;;5024267;28;20396;-61
2021/12/14 00:09:02;;;;;;;;;;;7.20;94.10;;;;;;5023864;28;20314;-61
2021/12/14 00:14:26;;;;;;;;;;;7.20;94.40;;;;;;5023034;28;19921;-61
2021/12/14 00:16:54;;;;;;;;;;;7.20;94.10;;;;;;5009512;28;20004;-61
2021/12/14 00:19:19;;;;;;;;;;;7.20;94.10;;;;;;5007559;28;19917;-61
2021/12/14 00:21:50;;;;;;;;;;;7.20;94.10;;;;;;5023097;28;19931;-61
2021/12/14 00:24:15;;;;;;;;;;;7.20;94.10;;;;;;4991266;28;20305;-61
2021/12/14 00:26:46;;;;;;;;;;;7.20;94.10;;;;;;5007162;28;19931;-61
2021/12/14 00:29:17;;;;;;;;;;;7.20;94.10;;;;;;4990585;28;19921;-61
2021/12/14 00:31:42;;;;;;;;;;;7.10;94.10;;;;;;5021668;28;19917;-60
2021/12/14 00:34:08;;;;;;;;;;;7.10;94.10;;;;;;5007395;28;19914;-61
2021/12/14 00:36:35;;;;;;;;;;;7.20;94.10;;;;;;4989490;28;20404;-62
2021/12/14 00:39:02;;;;;;;;;;;7.10;94.00;;;;;;5023672;28;20284;-61
2021/12/14 00:41:29;;;;;;;;;;;7.20;94.10;;;;;;5023031;28;19909;-61
2021/12/14 00:43:54;;;;;;;;;;;7.10;94.00;;;;;;4990326;28;19924;-61
2021/12/14 00:46:20;;;;;;;;;;;7.10;94.00;;;;;;5006323;28;20280;-61
2021/12/14 00:48:45;;;;;;;;;;;7.10;94.10;;;;;;5006844;28;19913;-61
2021/12/14 00:51:12;;;;;;;;;;;7.10;94.10;;;;;;5007112;28;20428;-61
2021/12/14 00:53:37;;;;;;;;;;;7.10;94.00;;;;;;5022111;28;20392;-61
2021/12/14 00:56:04;;;;;;;;;;;7.10;94.00;;;;;;4988870;28;19919;-61
2021/12/14 00:58:30;;;;;;;;;;;7.10;94.10;;;;;;5005533;28;20371;-61
2021/12/14 01:00:57;;;;;;;;;;;7.10;94.00;;;;;;4988856;28;19925;-61
2021/12/14 01:03:23;;;;;;;;;;;7.10;94.00;;;;;;5005309;28;19929;-61
2021/12/14 01:05:48;;;;;;;;;;;7.10;94.00;;;;;;5003345;28;19920;-60
2021/12/14 01:08:15;;;;;;;;;;;7.10;94.00;;;;;;5004835;28;19921;-60
2021/12/14 01:10:45;;;;;;;;;;;7.10;94.00;;;;;;5005469;28;21186;-61
2021/12/14 01:13:11;;;;;;;;;;;7.10;93.90;;;;;;5021129;28;19921;-61
2021/12/14 01:21:43;;;;;;;;;;;7.10;93.90;;;;;;4990691;28;19921;-61
2021/12/14 01:24:20;;;;;;;;;;;7.10;93.90;;;;;;4990265;28;19917;-61
2021/12/14 01:26:45;;;;;;;;;;;7.10;94.00;;;;;;5003776;28;19913;-61
2021/12/14 01:29:11;;;;;;;;;;;7.00;93.90;;;;;;5002398;28;19913;-61
2021/12/14 01:31:39;;;;;;;;;;;7.00;93.90;;;;;;5004700;28;19968;-61
2021/12/14 01:34:06;;;;;;;;;;;7.00;93.90;;;;;;5005252;28;20003;-61
2021/12/14 01:41:44;;;;;;;;;;;7.00;93.80;;;;;;5019591;28;19913;-61
2021/12/14 01:44:10;;;;;;;;;;;7.00;93.80;;;;;;5002732;28;19917;-60
2021/12/14 01:46:36;;;;;;;;;;;7.00;93.80;;;;;;5004203;28;19921;-61
2021/12/14 01:49:06;;;;;;;;;;;7.00;93.80;;;;;;5005009;28;20136;-61
2021/12/14 01:51:32;;;;;;;;;;;7.00;93.80;;;;;;5023015;28;19943;-61
2021/12/14 01:53:58;;;;;;;;;;;7.00;93.80;;;;;;4988668;28;19913;-61
2021/12/14 01:56:25;;;;;;;;;;;7.00;93.80;;;;;;5005042;28;19921;-61
2021/12/14 01:58:53;;;;;;;;;;;7.00;93.80;;;;;;5000209;28;19948;-61
2021/12/14 02:01:20;;;;;;;;;;;7.00;93.80;;;;;;5013114;28;19952;-61
2021/12/14 02:03:50;;;;;;;;;;;7.00;93.80;;;;;;5021692;28;19921;-61
2021/12/14 02:06:20;;;;;;;;;;;7.00;93.80;;;;;;5021105;28;19917;-61
2021/12/14 02:08:46;;;;;;;;;;;7.00;93.80;;;;;;5020575;28;19921;-60
2021/12/14 02:11:11;;;;;;;;;;;7.00;93.80;;;;;;5020341;28;19979;-61
2021/12/14 02:13:38;;;;;;;;;;;7.00;93.80;;;;;;5030995;28;20112;-61
2021/12/14 02:16:04;;;;;;;;;;;7.00;93.80;;;;;;5038272;28;20377;-61
2021/12/14 02:18:30;;;;;;;;;;;7.00;93.80;;;;;;5025330;28;19920;-61
2021/12/14 02:20:56;;;;;;;;;;;7.00;93.70;;;;;;5024531;28;19928;-63
2021/12/14 02:23:22;;;;;;;;;;;7.00;93.70;;;;;;5023822;28;19921;-61
2021/12/14 02:25:48;;;;;;;;;;;7.00;93.70;;;;;;5038380;28;19996;-61
2021/12/14 02:28:17;;;;;;;;;;;6.90;93.60;;;;;;5024831;28;20018;-61
2021/12/14 02:30:44;;;;;;;;;;;7.00;93.70;;;;;;5008603;28;20002;-61
2021/12/14 02:33:16;;;;;;;;;;;7.00;93.60;;;;;;5023246;28;19913;-61
2021/12/14 02:35:41;;;;;;;;;;;6.90;93.60;;;;;;5024090;28;19917;-61
2021/12/14 02:38:08;;;;;;;;;;;6.90;93.60;;;;;;5022738;28;19913;-61
2021/12/14 02:43:19;;;;;;;;;;;6.90;93.50;;;;;;5022464;28;19924;-61
2021/12/14 02:45:45;;;;;;;;;;;6.90;93.60;;;;;;5007698;28;19963;-61
2021/12/14 02:48:10;;;;;;;;;;;6.90;93.60;;;;;;5024254;28;20410;-61
2021/12/14 02:50:36;;;;;;;;;;;6.80;93.50;;;;;;5021725;28;19920;-61
2021/12/14 02:53:01;;;;;;;;;;;6.80;93.50;;;;;;5023138;28;19925;-61
2021/12/14 02:55:27;;;;;;;;;;;6.80;93.60;;;;;;5025453;28;19948;-61
2021/12/14 02:57:54;;;;;;;;;;;6.90;93.60;;;;;;5039587;28;19921;-61
2021/12/14 03:00:30;;;;;;;;;;;6.80;93.60;;;;;;5019483;28;20312;-61
2021/12/14 03:02:56;;;;;;;;;;;6.80;93.60;;;;;;5039819;28;19928;-61
2021/12/14 03:05:24;;;;;;;;;;;6.80;93.60;;;;;;5039743;28;19913;-61
2021/12/14 03:07:54;;;;;;;;;;;6.80;93.60;;;;;;5007591;28;19962;-61
2021/12/14 03:13:07;;;;;;;;;;;6.80;93.50;;;;;;4979703;28;20126;-61
2021/12/14 03:15:45;;;;;;;;;;;6.80;93.60;;;;;;5007323;28;19993;-61
2021/12/14 03:18:11;;;;;;;;;;;6.80;93.60;;;;;;5006266;28;20198;-61
2021/12/14 03:20:41;;;;;;;;;;;6.80;93.60;;;;;;5022747;28;19917;-61
2021/12/14 03:23:09;;;;;;;;;;;6.80;93.60;;;;;;5024668;28;19983;-61
2021/12/14 03:25:35;;;;;;;;;;;6.80;93.60;;;;;;5023912;28;19980;-61
2021/12/14 03:28:01;;;;;;;;;;;6.80;93.60;;;;;;5022792;28;19909;-61
2021/12/14 03:30:31;;;;;;;;;;;6.70;93.60;;;;;;5006966;28;19940;-61
2021/12/14 03:32:59;;;;;;;;;;;6.70;93.60;;;;;;5022589;28;19909;-61
2021/12/14 03:35:39;;;;;;;;;;;6.70;93.60;;;;;;5006879;28;20035;-61
2021/12/14 03:38:06;;;;;;;;;;;6.80;93.60;;;;;;5022420;28;19921;-61
2021/12/14 03:40:32;;;;;;;;;;;6.90;93.60;;;;;;5023966;28;20273;-61
2021/12/14 03:42:57;;;;;;;;;;;6.70;93.60;;;;;;5036264;28;20022;-61
2021/12/14 03:45:23;;;;;;;;;;;6.80;93.60;;;;;;5037482;28;19924;-61
2021/12/14 03:47:50;;;;;;;;;;;6.70;93.60;;;;;;5006763;28;19927;-61
2021/12/14 03:50:20;;;;;;;;;;;6.70;93.60;;;;;;5006036;28;19917;-61
2021/12/14 03:52:46;;;;;;;;;;;6.80;93.70;;;;;;5003152;28;19921;-61
2021/12/14 03:55:13;;;;;;;;;;;6.70;93.70;;;;;;5022237;28;19933;-61
2021/12/14 03:57:39;;;;;;;;;;;6.70;93.60;;;;;;5037295;28;20000;-61
2021/12/14 04:00:08;;;;;;;;;;;6.70;93.70;;;;;;5022574;28;20040;-61
2021/12/14 04:02:34;;;;;;;;;;;6.70;93.60;;;;;;5022689;28;19921;-62
2021/12/14 04:05:06;;;;;;;;;;;6.70;93.60;;;;;;5035719;28;20359;-61
2021/12/14 04:07:32;;;;;;;;;;;6.70;93.60;;;;;;5038070;28;20000;-61
2021/12/14 04:09:59;;;;;;;;;;;6.70;93.60;;;;;;5004634;28;20351;-61
2021/12/14 04:12:24;;;;;;;;;;;6.70;93.60;;;;;;5005754;28;19924;-61
2021/12/14 04:14:51;;;;;;;;;;;6.90;93.60;;;;;;5018214;28;19967;-61
2021/12/14 04:17:17;;;;;;;;;;;6.70;93.60;;;;;;5020405;28;19921;-61
2021/12/14 04:19:43;;;;;;;;;;;6.70;93.60;;;;;;5022684;28;19967;-61
2021/12/14 04:22:12;;;;;;;;;;;6.70;93.60;;;;;;5019954;28;19955;-61
2021/12/14 04:24:38;;;;;;;;;;;6.70;93.60;;;;;;5019152;28;19913;-61
2021/12/14 04:27:05;;;;;;;;;;;6.70;93.60;;;;;;5022784;28;19921;-61
2021/12/14 04:29:31;;;;;;;;;;;6.70;93.60;;;;;;5006869;28;20003;-61
2021/12/14 04:31:57;;;;;;;;;;;6.70;93.60;;;;;;5005959;28;20028;-61
2021/12/14 04:34:22;;;;;;;;;;;6.60;93.50;;;;;;5004027;28;20128;-61
2021/12/14 04:36:50;;;;;;;;;;;6.60;93.60;;;;;;5022594;28;19913;-61
2021/12/14 04:52:49;;;;;;;;;;;6.60;93.60;;;;;;5023260;28;20035;-61
2021/12/14 04:55:14;;;;;;;;;;;6.60;93.60;;;;;;5022880;28;19963;-61
2021/12/14 04:57:44;;;;;;;;;;;6.60;93.60;;;;;;5004084;28;20369;-61
2021/12/14 05:00:19;;;;;;;;;;;6.60;93.50;;;;;;5021288;28;20008;-61
2021/12/14 05:02:45;;;;;;;;;;;6.60;93.50;;;;;;5021176;28;19932;-61
2021/12/14 05:05:11;;;;;;;;;;;6.60;93.60;;;;;;5022563;28;20454;-61
2021/12/14 05:10:05;;;;;;;;;;;6.60;93.60;;;;;;5022405;28;19914;-61
2021/12/14 05:12:32;;;;;;;;;;;6.60;93.60;;;;;;5002878;28;19913;-61
2021/12/14 05:15:01;;;;;;;;;;;6.50;93.50;;;;;;5022279;28;20007;-61
2021/12/14 05:17:29;;;;;;;;;;;6.60;93.50;;;;;;5038747;28;19917;-61
2021/12/14 05:19:55;;;;;;;;;;;6.60;93.50;;;;;;5020009;28;19963;-62
2021/12/14 05:22:27;;;;;;;;;;;6.50;93.50;;;;;;5022222;28;19913;-61
2021/12/14 05:24:53;;;;;;;;;;;6.60;93.50;;;;;;5023002;28;20369;-61
2021/12/14 05:27:23;;;;;;;;;;;6.50;93.50;;;;;;5020928;28;19998;-61
2021/12/14 05:29:48;;;;;;;;;;;6.60;93.50;;;;;;5037948;28;19910;-62
2021/12/14 05:32:15;;;;;;;;;;;6.50;93.50;;;;;;5022380;28;20265;-61
2021/12/14 05:34:41;;;;;;;;;;;6.50;93.50;;;;;;5021936;28;20359;-61
2021/12/14 05:37:06;;;;;;;;;;;6.50;93.50;;;;;;5035599;28;19913;-61
2021/12/14 05:44:33;;;;;;;;;;;6.50;93.40;;;;;;5037146;28;19923;-61
2021/12/14 05:46:59;;;;;;;;;;;6.50;93.50;;;;;;5021908;28;20166;-61
2021/12/14 05:49:26;;;;;;;;;;;6.60;93.50;;;;;;5022128;28;19913;-62
2021/12/14 05:51:52;;;;;;;;;;;6.50;93.50;;;;;;5007733;28;20345;-61
2021/12/14 05:54:18;;;;;;;;;;;6.50;93.50;;;;;;5024594;28;19963;-62
2021/12/14 05:56:44;;;;;;;;;;;6.50;93.50;;;;;;5025445;28;20288;-61
2021/12/14 05:59:09;;;;;;;;;;;6.40;93.50;;;;;;5025205;28;20004;-61
2021/12/14 06:01:35;;;;;;;;;;;6.40;93.50;;;;;;5042406;28;19921;-61
2021/12/14 06:04:02;;;;;;;;;;;6.50;93.50;;;;;;5041689;28;19983;-61
2021/12/14 06:06:29;;;;;;;;;;;6.40;93.50;;;;;;5007347;28;19924;-61
2021/12/14 06:09:03;;;;;;;;;;;6.40;93.60;;;;;;5008099;28;19915;-62
2021/12/14 06:11:29;;;;;;;;;;;6.50;93.80;;;;;;5018830;28;20433;-61
2021/12/14 06:13:54;;;;;;;;;;;6.50;93.70;;;;;;5023219;28;19916;-61
2021/12/14 06:16:34;;;;;;;;;;;6.50;93.70;;;;;;5026014;28;19909;-62
2021/12/14 06:19:16;;;;;;;;;;;6.50;93.70;;;;;;5023920;28;19924;-61
2021/12/14 06:21:42;;;;;;;;;;;6.50;93.60;;;;;;5025361;28;19913;-62
2021/12/14 06:24:09;;;;;;;;;;;6.50;93.70;;;;;;5025213;28;19924;-61
2021/12/14 06:26:44;;;;;;;;;;;6.50;93.70;;;;;;5042102;28;20428;-62
2021/12/14 06:29:12;;;;;;;;;;;6.50;93.70;;;;;;5006570;28;19917;-61
2021/12/14 06:31:38;;;;;;;;;;;6.50;93.80;;;;;;5025487;28;19959;-61
2021/12/14 06:34:13;;;;;;;;;;;6.50;93.80;;;;;;5025797;28;19909;-61
2021/12/14 06:37:03;;;;;;;;;;;6.50;93.70;;;;;;5023699;28;19909;-61
2021/12/14 06:39:29;;;;;;;;;;;6.50;93.70;;;;;;5025934;28;19913;-61
2021/12/14 06:42:05;;;;;;;;;;;6.40;93.60;;;;;;5022626;28;19960;-61
2021/12/14 06:44:30;;;;;;;;;;;6.50;93.60;;;;;;5007698;28;19912;-61
2021/12/14 06:46:55;;;;;;;;;;;6.40;93.60;;;;;;5039176;28;20420;-61
2021/12/14 06:49:21;;;;;;;;;;;6.40;93.60;;;;;;5009383;28;19921;-61
2021/12/14 06:51:47;;;;;;;;;;;6.40;93.60;;;;;;5023589;28;19909;-61
2021/12/14 06:54:23;;;;;;;;;;;6.40;93.60;;;;;;5025828;28;19959;-61
2021/12/14 06:56:50;;;;;;;;;;;6.40;93.50;;;;;;5022515;28;20320;-61
2021/12/14 06:59:16;;;;;;;;;;;6.30;93.50;;;;;;5025560;28;20391;-61
2021/12/14 07:01:41;;;;;;;;;;;6.40;93.60;;;;;;5008508;28;19925;-62
2021/12/14 07:04:17;;;;;;;;;;;6.40;93.50;;;;;;5023774;28;19979;-61
2021/12/14 07:06:43;;;;;;;;;;;6.40;93.60;;;;;;5008138;28;20175;-61
2021/12/14 07:09:10;;;;;;;;;;;6.40;93.60;;;;;;5006811;28;19920;-61
2021/12/14 07:11:35;;;;;;;;;;;6.40;93.70;;;;;;5024219;28;19963;-61
2021/12/14 07:14:02;;;;;;;;;;;6.30;93.70;;;;;;5007395;28;19917;-61
2021/12/14 07:16:30;;;;;;;;;;;6.40;93.80;;;;;;5007724;28;19913;-61
2021/12/14 07:18:56;;;;;;;;;;;6.30;93.70;;;;;;4990162;28;19910;-61
2021/12/14 07:21:32;;;;;;;;;;;6.30;93.70;;;;;;5025725;28;20383;-61
2021/12/14 07:23:58;;;;;;;;;;;6.30;93.80;;;;;;5007837;28;19917;-61
2021/12/14 07:26:23;;;;;;;;;;;6.30;93.80;;;;;;4991605;28;19909;-61
2021/12/14 07:28:49;;;;;;;;;;;6.30;93.70;;;;;;5006010;28;19928;-61
2021/12/14 07:31:18;;;;;;;;;;;6.30;93.70;;;;;;5006902;28;20554;-61
2021/12/14 07:33:45;;;;;;;;;;;6.30;93.60;;;;;;5022490;28;20007;-61
2021/12/14 07:36:11;;;;;;;;;;;6.30;93.70;;;;;;4991818;28;19916;-62
2021/12/14 07:38:40;;;;;;;;;;;6.30;93.70;;;;;;5006047;28;20003;-61
2021/12/14 07:41:11;;;;;;;;;;;6.30;93.70;;;;;;5008311;28;19915;-62
2021/12/14 07:43:37;;;;;;;;;;;6.30;93.70;;;;;;5006986;28;20419;-61
2021/12/14 07:46:11;;;;;;;;;;;6.30;93.80;;;;;;4987890;28;20423;-61
2021/12/14 07:48:38;;;;;;;;;;;6.20;93.70;;;;;;5007357;28;19917;-61
2021/12/14 07:51:04;;;;;;;;;;;6.20;93.70;;;;;;5006149;28;19967;-61
2021/12/14 07:53:33;;;;;;;;;;;6.20;93.70;;;;;;5024806;28;19939;-61
2021/12/14 07:55:59;;;;;;;;;;;6.20;93.70;;;;;;4987411;28;19917;-61
2021/12/14 07:58:31;;;;;;;;;;;6.20;93.70;;;;;;4988483;28;19920;-61
2021/12/14 08:00:57;;;;;;;;;;;6.20;93.70;;;;;;4987546;28;19932;-61
2021/12/14 08:03:29;;;;;;;;;;;6.20;93.70;;;;;;5006631;28;19917;-61
2021/12/14 08:05:54;;;;;;;;;;;6.30;93.70;;;;;;4990017;28;19936;-61
2021/12/14 08:08:31;;;;;;;;;;;6.20;93.70;;;;;;5004936;28;19913;-62
2021/12/14 08:11:09;;;;;;;;;;;6.30;93.70;;;;;;5022384;28;19935;-62
2021/12/14 08:13:42;;;;;;;;;;;6.20;93.70;;;;;;5007235;28;19916;-61
2021/12/14 08:16:07;;;;;;;;;;;6.20;93.60;;;;;;4991167;28;19925;-61
2021/12/14 08:18:34;;;;;;;;;;;6.20;93.70;;;;;;5006004;28;19920;-61
2021/12/14 08:21:01;;;;;;;;;;;6.20;93.70;;;;;;5022252;28;20052;-61
2021/12/14 08:23:28;;;;;;;;;;;6.20;93.70;;;;;;5006505;28;19913;-62
2021/12/14 08:25:55;;;;;;;;;;;6.20;93.70;;;;;;5023119;28;19917;-61
2021/12/14 08:28:21;;;;;;;;;;;6.20;93.60;;;;;;5005842;28;19945;-61
2021/12/14 08:31:00;;;;;;;;;;;6.30;93.70;;;;;;5003908;28;19983;-61
2021/12/14 08:33:26;;;;;;;;;;;6.30;93.60;;;;;;5006195;28;20034;-61
2021/12/14 08:35:53;;;;;;;;;;;6.30;93.60;;;;;;4989554;28;19917;-61
2021/12/14 08:38:19;;;;;;;;;;;6.30;93.60;;;;;;4989667;28;19910;-61
2021/12/14 08:40:50;;;;;;;;;;;6.30;93.50;;;;;;4988317;28;19928;-61
2021/12/14 08:43:23;;;;;;;;;;;6.30;93.50;;;;;;4989602;28;19928;-61
2021/12/14 08:45:58;;;;;;;;;;;6.20;93.40;;;;;;5005041;28;19921;-61
2021/12/14 08:48:24;;;;;;;;;;;6.30;93.40;;;;;;5020216;28;19921;-61
2021/12/14 08:50:53;;;;;;;;;;;6.30;93.40;;;;;;5005658;28;19917;-60
2021/12/14 08:53:19;;;;;;;;;;;6.30;93.50;;;;;;5022462;28;20428;-61
2021/12/14 08:55:45;;;;;;;;;;;6.30;93.60;;;;;;5021047;28;19929;-61
2021/12/14 08:58:11;;;;;;;;;;;6.30;93.70;;;;;;5005661;28;19914;-61
2021/12/14 09:00:42;;;;;;;;;;;6.30;93.60;;;;;;5005417;28;20160;-61
2021/12/14 09:03:08;;;;;;;;;;;6.30;93.50;;;;;;4987175;28;19917;-61
2021/12/14 09:05:40;;;;;;;;;;;6.30;93.50;;;;;;4989251;28;20364;-61
2021/12/14 09:08:06;;;;;;;;;;;6.30;93.50;;;;;;5005645;28;19917;-61
2021/12/14 09:10:32;;;;;;;;;;;6.30;93.50;;;;;;5021272;28;19917;-61
2021/12/14 09:12:59;;;;;;;;;;;6.30;93.50;;;;;;4990741;28;19958;-61
2021/12/14 09:15:29;;;;;;;;;;;6.30;93.50;;;;;;4987280;28;19913;-61
2021/12/14 09:17:55;;;;;;;;;;;6.40;93.50;;;;;;4989599;28;19921;-61
2021/12/14 09:20:31;;;;;;;;;;;6.30;93.40;;;;;;5005473;28;19920;-61
2021/12/14 09:22:58;;;;;;;;;;;6.30;93.40;;;;;;5006493;28;19921;-61
2021/12/14 09:25:25;;;;;;;;;;;6.40;93.40;;;;;;5005481;28;19963;-60
2021/12/14 09:27:50;;;;;;;;;;;6.40;93.40;;;;;;5004912;28;19913;-61
2021/12/14 09:30:17;;;;;;;;;;;6.40;93.40;;;;;;5004152;28;19913;-62
2021/12/14 09:32:42;;;;;;;;;;;6.40;93.40;;;;;;5004123;28;19931;-61
2021/12/14 09:35:09;;;;;;;;;;;6.40;93.40;;;;;;5007756;28;19997;-61
2021/12/14 09:37:35;;;;;;;;;;;6.40;93.60;;;;;;4990680;28;19963;-61
2021/12/14 09:40:04;;;;;;;;;;;6.40;93.30;;;;;;4991031;28;19925;-61
2021/12/14 09:42:31;;;;;;;;;;;6.40;93.40;;;;;;4986693;28;20016;-63
2021/12/14 09:44:58;;;;;;;;;;;6.30;93.30;;;;;;4989747;28;19924;-61
2021/12/14 09:47:29;;;;;;;;;;;6.30;93.30;;;;;;5019148;28;19913;-61
2021/12/14 09:49:55;;;;;;;;;;;6.40;93.40;;;;;;5000981;28;20440;-61
2021/12/14 09:52:25;;;;;;;;;;;6.40;93.40;;;;;;5005565;28;20054;-61
2021/12/14 09:54:50;;;;;;;;;;;6.40;93.40;;;;;;4986500;28;20058;-61
2021/12/14 09:57:19;;;;;;;;;;;6.40;93.50;;;;;;5004255;28;20478;-61
2021/12/14 09:59:44;;;;;;;;;;;6.40;93.40;;;;;;5001452;28;19952;-61
2021/12/14 10:02:11;;;;;;;;;;;6.40;93.50;;;;;;5004694;28;19913;-60
2021/12/14 10:04:38;;;;;;;;;;;6.40;93.40;;;;;;4999302;28;19979;-61
2021/12/14 10:07:04;;;;;;;;;;;6.40;93.40;;;;;;5011390;28;19957;-62
2021/12/14 10:09:31;;;;;;;;;;;6.50;93.40;;;;;;4989850;28;19988;-61
2021/12/14 10:12:15;;;;;;;;;;;6.50;93.40;;;;;;5003200;28;19925;-61
2021/12/14 10:14:41;;;;;;;;;;;6.50;93.30;;;;;;4991230;28;19940;-62
2021/12/14 10:17:07;;;;;;;;;;;6.50;93.50;;;;;;5017689;28;19913;-61
2021/12/14 10:19:33;;;;;;;;;;;6.50;93.40;;;;;;5003885;28;19921;-61
2021/12/14 10:22:00;;;;;;;;;;;6.60;93.40;;;;;;5018434;28;19913;-61
2021/12/14 10:24:26;;;;;;;;;;;6.60;93.40;;;;;;5017265;28;20369;-62
2021/12/14 10:26:56;;;;;;;;;;;6.60;93.50;;;;;;4987282;28;20371;-62
2021/12/14 10:29:21;;;;;;;;;;;6.70;93.50;;;;;;4988307;28;20376;-62
2021/12/14 10:31:58;;;;;;;;;;;6.70;93.40;;;;;;4988866;28;19920;-61
2021/12/14 10:34:25;;;;;;;;;;;6.70;93.30;;;;;;5019996;28;19927;-61
2021/12/14 10:36:54;;;;;;;;;;;6.70;93.30;;;;;;5004912;28;20357;-61
2021/12/14 10:39:35;;;;;;;;;;;6.80;93.30;;;;;;4990817;28;19921;-61
2021/12/14 10:44:48;;;;;;;;;;;6.80;93.50;;;;;;5010027;28;19979;-62
2021/12/14 10:47:15;;;;;;;;;;;6.90;93.60;;;;;;5004440;28;20401;-61
2021/12/14 10:49:40;;;;;;;;;;;6.80;93.50;;;;;;4990928;28;20293;-61
2021/12/14 10:52:14;;;;;;;;;;;6.80;93.50;;;;;;5008916;28;19921;-61
2021/12/14 10:54:40;;;;;;;;;;;6.90;93.40;;;;;;5008358;28;19928;-61
2021/12/14 10:57:07;;;;;;;;;;;6.90;93.40;;;;;;4989215;28;20032;-61
2021/12/14 10:59:34;;;;;;;;;;;6.90;93.50;;;;;;5006525;28;20062;-62
2021/12/14 11:01:59;;;;;;;;;;;7.00;93.60;;;;;;4991705;28;20250;-62
2021/12/14 11:04:33;;;;;;;;;;;7.00;93.70;;;;;;4992816;28;20052;-62
2021/12/14 11:07:01;;;;;;;;;;;7.00;93.60;;;;;;5008867;28;19968;-61
2021/12/14 11:09:45;;;;;;;;;;;7.00;93.60;;;;;;4989868;28;20403;-62
2021/12/14 11:12:12;;;;;;;;;;;7.00;93.80;;;;;;4993645;28;20452;-61
2021/12/14 11:14:38;;;;;;;;;;;7.00;93.60;;;;;;5021945;28;20288;-61
2021/12/14 11:19:49;;;;;;;;;;;7.00;93.60;;;;;;5021775;28;21216;-61
2021/12/14 11:22:20;;;;;;;;;;;7.10;93.70;;;;;;5007554;28;19913;-62
2021/12/14 11:24:48;;;;;;;;;;;7.10;93.70;;;;;;5007753;28;19926;-61
2021/12/14 11:27:13;;;;;;;;;;;7.10;93.70;;;;;;5008657;28;19913;-60
2021/12/14 11:29:39;;;;;;;;;;;7.20;93.50;;;;;;5017857;28;19921;-60
2021/12/14 11:32:04;;;;;;;;;;;7.20;93.50;;;;;;5017939;28;20115;-60
2021/12/14 11:34:34;;;;;;;;;;;7.20;93.70;;;;;;5004780;28;20208;-60
2021/12/14 11:37:03;;;;;;;;;;;7.20;93.50;;;;;;4991186;28;19921;-61
2021/12/14 11:39:30;;;;;;;;;;;7.20;93.50;;;;;;4989700;28;20252;-61
2021/12/14 11:41:55;;;;;;;;;;;7.20;93.60;;;;;;5003485;28;19933;-61
2021/12/14 11:44:23;;;;;;;;;;;7.20;93.50;;;;;;5023134;28;20235;-61
2021/12/14 11:46:55;;;;;;;;;;;7.20;93.50;;;;;;5005940;28;20304;-60
2021/12/14 11:49:21;;;;;;;;;;;7.30;93.50;;;;;;5021698;28;20514;-60
2021/12/14 11:51:46;;;;;;;;;;;7.30;93.90;;;;;;5007145;28;20355;-61
2021/12/14 11:54:14;;;;;;;;;;;7.30;93.60;;;;;;4992572;28;19945;-60
2021/12/14 11:56:39;;;;;;;;;;;7.30;93.50;;;;;;5006776;28;19971;-61
2021/12/14 11:59:05;;;;;;;;;;;7.40;93.60;;;;;;5008085;28;20412;-61
2021/12/14 12:01:34;;;;;;;;;;;7.40;93.40;;;;;;5002025;28;20460;-61
2021/12/14 12:03:59;;;;;;;;;;;7.50;93.50;;;;;;5019847;28;19932;-61
2021/12/14 12:09:28;;;;;;;;;;;7.50;93.50;;;;;;5023972;28;19940;-61
2021/12/14 12:12:17;;;;;;;;;;;7.50;93.50;;;;;;5021252;28;19921;-61
2021/12/14 12:15:01;;;;;;;;;;;7.50;93.40;;;;;;5011148;28;19913;-62
2021/12/14 12:17:29;;;;;;;;;;;7.60;93.50;;;;;;5023603;28;19917;-61
2021/12/14 12:20:05;;;;;;;;;;;7.60;93.50;;;;;;5002889;28;19944;-61
2021/12/14 12:22:33;;;;;;;;;;;7.60;93.40;;;;;;5023652;28;20008;-62
2021/12/14 12:24:59;;;;;;;;;;;7.60;93.40;;;;;;5005380;28;19956;-61
2021/12/14 12:27:29;;;;;;;;;;;7.80;93.50;;;;;;5004489;28;19972;-61
2021/12/14 12:30:15;;;;;;;;;;;7.60;93.40;;;;;;5017359;28;20006;-61
2021/12/14 12:32:41;;;;;;;;;;;7.70;93.40;;;;;;5016264;28;20583;-61
2021/12/14 12:35:19;;;;;;;;;;;7.60;93.30;;;;;;5005074;28;19921;-61
2021/12/14 12:37:45;;;;;;;;;;;7.70;93.30;;;;;;5006557;28;19924;-61
2021/12/14 12:40:12;;;;;;;;;;;7.70;93.30;;;;;;5003762;28;20368;-61
2021/12/14 12:42:38;;;;;;;;;;;7.70;93.20;;;;;;5005705;28;19967;-61
2021/12/14 12:45:05;;;;;;;;;;;7.70;93.20;;;;;;5022622;28;19945;-61
2021/12/14 12:47:32;;;;;;;;;;;7.70;93.10;;;;;;5005345;28;19937;-61
2021/12/14 12:49:57;;;;;;;;;;;7.70;93.20;;;;;;5004431;28;19913;-61
2021/12/14 12:52:33;;;;;;;;;;;7.70;93.20;;;;;;5004846;28;20566;-62
2021/12/14 12:55:18;;;;;;;;;;;7.70;93.10;;;;;;5003698;28;19914;-61
2021/12/14 12:57:45;;;;;;;;;;;7.70;93.10;;;;;;5019994;28;20467;-61
2021/12/14 13:00:19;;;;;;;;;;;7.70;93.00;;;;;;5017298;28;19924;-61
2021/12/14 13:02:46;;;;;;;;;;;7.70;93.00;;;;;;5003975;28;19929;-61
2021/12/14 13:05:27;;;;;;;;;;;7.70;93.00;;;;;;5007520;28;19921;-61
2021/12/14 13:07:54;;;;;;;;;;;7.70;93.00;;;;;;5022132;28;20327;-61
2021/12/14 13:10:23;;;;;;;;;;;7.70;93.00;;;;;;4989656;28;19917;-61
2021/12/14 13:12:49;;;;;;;;;;;7.80;93.10;;;;;;5003008;28;19917;-62
2021/12/14 13:15:31;;;;;;;;;;;7.80;93.10;;;;;;5022513;28;19974;-61
2021/12/14 13:18:16;;;;;;;;;;;7.80;93.10;;;;;;5011779;28;19925;-61
2021/12/14 13:20:42;;;;;;;;;;;7.80;93.20;;;;;;5000233;28;20040;-61
2021/12/14 13:23:07;;;;;;;;;;;7.90;93.20;;;;;;5015184;28;19966;-62
2021/12/14 13:25:38;;;;;;;;;;;7.80;93.20;;;;;;5003054;28;19957;-61
2021/12/14 13:28:03;;;;;;;;;;;7.80;93.10;;;;;;5002238;28;20143;-61
2021/12/14 13:30:29;;;;;;;;;;;7.80;93.20;;;;;;5005366;28;20578;-62
2021/12/14 13:32:54;;;;;;;;;;;7.80;93.20;;;;;;4989203;28;21909;-61
2021/12/14 13:35:22;;;;;;;;;;;7.80;93.20;;;;;;5014686;28;19925;-61
2021/12/14 13:37:47;;;;;;;;;;;7.80;93.20;;;;;;4988662;28;19972;-61
2021/12/14 13:40:16;;;;;;;;;;;7.90;93.10;;;;;;5007355;28;19910;-61
2021/12/14 13:42:42;;;;;;;;;;;7.90;93.10;;;;;;5004444;28;21174;-61
2021/12/14 13:45:09;;;;;;;;;;;7.90;93.10;;;;;;5024337;28;20357;-61
2021/12/14 13:47:34;;;;;;;;;;;7.90;93.00;;;;;;5000298;28;20425;-61
2021/12/14 13:50:00;;;;;;;;;;;7.90;93.00;;;;;;4989211;28;19923;-61
2021/12/14 13:52:26;;;;;;;;;;;7.90;93.10;;;;;;5005548;28;20029;-61
2021/12/14 13:55:10;;;;;;;;;;;7.90;93.10;;;;;;5012331;28;19927;-61
2021/12/14 13:57:37;;;;;;;;;;;7.90;93.00;;;;;;5016777;28;19925;-61
2021/12/14 14:00:03;;;;;;;;;;;7.90;93.00;;;;;;4983915;28;19921;-61
2021/12/14 14:02:28;;;;;;;;;;;7.90;92.90;;;;;;4998765;28;19956;-61
2021/12/14 14:04:54;;;;;;;;;;;7.90;93.00;;;;;;5017370;28;20028;-61
2021/12/14 14:07:21;;;;;;;;;;;7.90;93.00;;;;;;4976113;28;19925;-61
2021/12/14 14:09:49;;;;;;;;;;;7.90;92.90;;;;;;5005275;28;20419;-61
2021/12/14 14:12:16;;;;;;;;;;;8.00;92.90;;;;;;5001504;28;19925;-61
2021/12/14 14:14:42;;;;;;;;;;;8.00;92.90;;;;;;4992321;28;19921;-61
2021/12/14 14:17:18;;;;;;;;;;;8.00;92.90;;;;;;5006454;28;19920;-61
2021/12/14 14:19:45;;;;;;;;;;;8.00;92.90;;;;;;5000730;28;19932;-61
2021/12/14 14:22:11;;;;;;;;;;;8.00;93.00;;;;;;5006857;28;19917;-61
2021/12/14 14:24:38;;;;;;;;;;;8.00;93.30;;;;;;5006774;28;20662;-61
2021/12/14 14:27:05;;;;;;;;;;;8.00;93.00;;;;;;5003047;28;20272;-61
2021/12/14 14:29:40;;;;;;;;;;;7.90;92.90;;;;;;5025213;28;19917;-62
2021/12/14 14:32:11;;;;;;;;;;;8.00;93.00;;;;;;5013843;28;19920;-61
2021/12/14 14:34:46;;;;;;;;;;;8.00;93.20;;;;;;5002439;28;19928;-61
2021/12/14 14:37:12;;;;;;;;;;;8.00;92.90;;;;;;4992901;28;19924;-61
2021/12/14 14:39:48;;;;;;;;;;;8.00;93.00;;;;;;5002104;28;20273;-61
2021/12/14 14:42:21;;;;;;;;;;;8.10;93.00;;;;;;5004332;28;19928;-61
2021/12/14 14:44:47;;;;;;;;;;;8.00;93.10;;;;;;5004311;28;19979;-61
2021/12/14 14:47:15;;;;;;;;;;;8.00;93.00;;;;;;4984175;28;20626;-61
2021/12/14 14:49:40;;;;;;;;;;;8.00;92.90;;;;;;5016770;28;19913;-61
2021/12/14 14:52:06;;;;;;;;;;;8.00;92.90;;;;;;5019428;28;19967;-61
2021/12/14 14:54:34;;;;;;;;;;;8.00;93.00;;;;;;5011242;28;19977;-61
2021/12/14 14:57:09;;;;;;;;;;;8.00;92.90;;;;;;5018789;28;19921;-61
2021/12/14 14:59:34;;;;;;;;;;;8.00;92.90;;;;;;5012728;28;19921;-61
2021/12/14 15:02:00;;;;;;;;;;;8.00;93.00;;;;;;5004974;28;20284;-61
2021/12/14 15:04:26;;;;;;;;;;;8.00;93.10;;;;;;5006213;28;19925;-61
2021/12/14 15:06:51;;;;;;;;;;;8.00;93.30;;;;;;5004712;28;19978;-61
2021/12/14 15:09:26;;;;;;;;;;;8.00;93.40;;;;;;5003142;28;19913;-61
2021/12/14 15:11:52;;;;;;;;;;;8.00;93.60;;;;;;5003219;28;20011;-61
2021/12/14 15:14:38;;;;;;;;;;;8.00;93.30;;;;;;5004192;28;19936;-61
2021/12/14 15:17:17;;;;;;;;;;;8.00;93.10;;;;;;5018566;28;19921;-61
2021/12/14 15:19:44;;;;;;;;;;;8.10;93.30;;;;;;4986283;28;20015;-61
2021/12/14 15:22:10;;;;;;;;;;;8.00;93.20;;;;;;4986347;28;19928;-61
2021/12/14 15:24:36;;;;;;;;;;;8.00;93.20;;;;;;5005107;28;19957;-61
2021/12/14 15:27:11;;;;;;;;;;;8.10;93.30;;;;;;5004071;28;19961;-61